sensor_id;sensor_type;location;lat;lon;timestamp;pressure;altitude;pressure_sealevel;temperature
43802;BMP280;29429;51.074;13.764;2022-12-18T00:01:34;101600.69;;;-6.99
43802;BMP280;29429;51.074;13.764;2022-12-18T00:04:04;101597.16;;;-6.97
43802;BMP280;29429;51.074;13.764;2022-12-18T00:06:35;101599.69;;;-6.95
43802;BMP280;29429;51.074;13.764;2022-12-18T00:09:03;101586.00;;;-7.00
43802;BMP280;29429;51.074;13.764;2022-12-18T00:11:31;101592.22;;;-7.06
43802;BMP280;29429;51.074;13.764;2022-12-18T00:13:59;101595.72;;;-7.07
43802;BMP280;29429;51.074;13.764;2022-12-18T00:16:28;101615.72;;;-7.10
43802;BMP280;29429;51.074;13.764;2022-12-18T00:18:59;101623.53;;;-7.12
43802;BMP280;29429;51.074;13.764;2022-12-18T00:21:29;101631.34;;;-7.13
43802;BMP280;29429;51.074;13.764;2022-12-18T00:23:57;101623.63;;;-7.15
43802;BMP280;29429;51.074;13.764;2022-12-18T00:26:30;101619.00;;;-7.05
43802;BMP280;29429;51.074;13.764;2022-12-18T00:29:09;101631.09;;;-7.04
43802;BMP280;29429;51.074;13.764;2022-12-18T00:31:37;101632.06;;;-7.08
43802;BMP280;29429;51.074;13.764;2022-12-18T00:34:04;101634.00;;;-7.15
43802;BMP280;29429;51.074;13.764;2022-12-18T00:36:34;101624.56;;;-7.17
43802;BMP280;29429;51.074;13.764;2022-12-18T00:39:04;101631.63;;;-7.22
43802;BMP280;29429;51.074;13.764;2022-12-18T00:41:32;101636.00;;;-7.24
43802;BMP280;29429;51.074;13.764;2022-12-18T00:44:18;101644.72;;;-7.27
43802;BMP280;29429;51.074;13.764;2022-12-18T00:46:47;101638.88;;;-7.33
43802;BMP280;29429;51.074;13.764;2022-12-18T00:49:20;101654.44;;;-7.33
43802;BMP280;29429;51.074;13.764;2022-12-18T00:51:47;101651.91;;;-7.36
43802;BMP280;29429;51.074;13.764;2022-12-18T00:54:16;101651.94;;;-7.38
43802;BMP280;29429;51.074;13.764;2022-12-18T00:56:44;101643.44;;;-7.42
43802;BMP280;29429;51.074;13.764;2022-12-18T00:59:17;101656.19;;;-7.35
43802;BMP280;29429;51.074;13.764;2022-12-18T01:01:45;101652.97;;;-7.44
43802;BMP280;29429;51.074;13.764;2022-12-18T01:04:13;101647.22;;;-7.53
43802;BMP280;29429;51.074;13.764;2022-12-18T01:06:40;101638.75;;;-7.60
43802;BMP280;29429;51.074;13.764;2022-12-18T01:09:07;101646.44;;;-7.57
43802;BMP280;29429;51.074;13.764;2022-12-18T01:11:36;101646.44;;;-7.57
43802;BMP280;29429;51.074;13.764;2022-12-18T01:14:04;101652.41;;;-7.53
43802;BMP280;29429;51.074;13.764;2022-12-18T01:16:31;101650.59;;;-7.51
43802;BMP280;29429;51.074;13.764;2022-12-18T01:18:58;101654.97;;;-7.53
43802;BMP280;29429;51.074;13.764;2022-12-18T01:21:26;101659.31;;;-7.54
43802;BMP280;29429;51.074;13.764;2022-12-18T01:23:55;101653.34;;;-7.56
43802;BMP280;29429;51.074;13.764;2022-12-18T01:26:25;101668.03;;;-7.56
43802;BMP280;29429;51.074;13.764;2022-12-18T01:28:55;101671.38;;;-7.53
43802;BMP280;29429;51.074;13.764;2022-12-18T01:31:29;101677.13;;;-7.43
43802;BMP280;29429;51.074;13.764;2022-12-18T01:33:59;101669.44;;;-7.46
43802;BMP280;29429;51.074;13.764;2022-12-18T01:36:30;101678.06;;;-7.44
43802;BMP280;29429;51.074;13.764;2022-12-18T01:39:14;101673.06;;;-7.52
43802;BMP280;29429;51.074;13.764;2022-12-18T01:41:42;101676.00;;;-7.64
43802;BMP280;29429;51.074;13.764;2022-12-18T01:53:07;101673.22;;;-7.88
43802;BMP280;29429;51.074;13.764;2022-12-18T01:55:46;101674.34;;;-7.98
43802;BMP280;29429;51.074;13.764;2022-12-18T01:58:16;101671.09;;;-8.05
43802;BMP280;29429;51.074;13.764;2022-12-18T02:00:43;101677.16;;;-8.06
43802;BMP280;29429;51.074;13.764;2022-12-18T02:03:11;101681.44;;;-8.05
43802;BMP280;29429;51.074;13.764;2022-12-18T02:05:55;101679.50;;;-7.97
43802;BMP280;29429;51.074;13.764;2022-12-18T02:09:19;101679.50;;;-7.97
43802;BMP280;29429;51.074;13.764;2022-12-18T02:12:00;101676.06;;;-7.97
43802;BMP280;29429;51.074;13.764;2022-12-18T02:15:06;101676.94;;;-7.97
43802;BMP280;29429;51.074;13.764;2022-12-18T02:18:22;101679.41;;;-7.94
43802;BMP280;29429;51.074;13.764;2022-12-18T02:20:54;101674.22;;;-7.94
43802;BMP280;29429;51.074;13.764;2022-12-18T02:23:44;101678.59;;;-7.94
43802;BMP280;29429;51.074;13.764;2022-12-18T02:26:26;101674.19;;;-7.92
43802;BMP280;29429;51.074;13.764;2022-12-18T02:29:19;101669.81;;;-7.89
43802;BMP280;29429;51.074;13.764;2022-12-18T02:31:59;101679.13;;;-7.83
43802;BMP280;29429;51.074;13.764;2022-12-18T02:34:30;101685.63;;;-7.69
43802;BMP280;29429;51.074;13.764;2022-12-18T02:37:05;101686.28;;;-7.61
43802;BMP280;29429;51.074;13.764;2022-12-18T02:39:37;101685.22;;;-7.54
43802;BMP280;29429;51.074;13.764;2022-12-18T02:42:05;101679.94;;;-7.51
43802;BMP280;29429;51.074;13.764;2022-12-18T02:44:43;101686.69;;;-7.45
43802;BMP280;29429;51.074;13.764;2022-12-18T02:47:16;101695.19;;;-7.40
43802;BMP280;29429;51.074;13.764;2022-12-18T02:56:16;101681.53;;;-7.16
43802;BMP280;29429;51.074;13.764;2022-12-18T02:59:11;101677.47;;;-7.24
43802;BMP280;29429;51.074;13.764;2022-12-18T03:02:00;101688.81;;;-7.28
43802;BMP280;29429;51.074;13.764;2022-12-18T03:05:09;101691.66;;;-7.37
43802;BMP280;29429;51.074;13.764;2022-12-18T03:07:47;101692.97;;;-7.52
43802;BMP280;29429;51.074;13.764;2022-12-18T03:10:25;101686.28;;;-7.61
43802;BMP280;29429;51.074;13.764;2022-12-18T03:13:04;101687.28;;;-7.66
43802;BMP280;29429;51.074;13.764;2022-12-18T03:15:44;101687.34;;;-7.68
43802;BMP280;29429;51.074;13.764;2022-12-18T03:18:20;101690.09;;;-7.74
43802;BMP280;29429;51.074;13.764;2022-12-18T03:20:50;101691.19;;;-7.82
43802;BMP280;29429;51.074;13.764;2022-12-18T03:23:29;101699.00;;;-7.84
43802;BMP280;29429;51.074;13.764;2022-12-18T03:26:06;101700.00;;;-7.89
43802;BMP280;29429;51.074;13.764;2022-12-18T03:28:46;101701.75;;;-7.90
43802;BMP280;29429;51.074;13.764;2022-12-18T03:31:15;101697.28;;;-7.85
43802;BMP280;29429;51.074;13.764;2022-12-18T03:33:55;101700.59;;;-7.80
43802;BMP280;29429;51.074;13.764;2022-12-18T03:36:31;101702.13;;;-7.73
43802;BMP280;29429;51.074;13.764;2022-12-18T03:39:00;101700.19;;;-7.65
43802;BMP280;29429;51.074;13.764;2022-12-18T03:42:06;101708.53;;;-7.54
43802;BMP280;29429;51.074;13.764;2022-12-18T03:47:36;101702.25;;;-7.45
43802;BMP280;29429;51.074;13.764;2022-12-18T03:50:15;101713.38;;;-7.42
43802;BMP280;29429;51.074;13.764;2022-12-18T03:52:55;101712.69;;;-7.48
43802;BMP280;29429;51.074;13.764;2022-12-18T03:55:27;101713.06;;;-7.62
43802;BMP280;29429;51.074;13.764;2022-12-18T03:58:03;101710.75;;;-7.72
43802;BMP280;29429;51.074;13.764;2022-12-18T04:00:43;101711.13;;;-7.86
43802;BMP280;29429;51.074;13.764;2022-12-18T04:03:12;101712.97;;;-7.91
43802;BMP280;29429;51.074;13.764;2022-12-18T04:05:48;101713.16;;;-7.97
43802;BMP280;29429;51.074;13.764;2022-12-18T04:08:18;101705.59;;;-8.06
43802;BMP280;29429;51.074;13.764;2022-12-18T04:10:54;101712.72;;;-8.14
43802;BMP280;29429;51.074;13.764;2022-12-18T04:13:28;101714.56;;;-8.19
43802;BMP280;29429;51.074;13.764;2022-12-18T04:15:57;101719.00;;;-8.24
43802;BMP280;29429;51.074;13.764;2022-12-18T04:18:24;101733.78;;;-8.28
43802;BMP280;29429;51.074;13.764;2022-12-18T04:20:53;101723.56;;;-8.34
43802;BMP280;29429;51.074;13.764;2022-12-18T04:23:20;101720.91;;;-8.31
43802;BMP280;29429;51.074;13.764;2022-12-18T04:25:47;101728.66;;;-8.31
43802;BMP280;29429;51.074;13.764;2022-12-18T04:28:22;101734.84;;;-8.36
43802;BMP280;29429;51.074;13.764;2022-12-18T04:30:49;101731.25;;;-8.29
43802;BMP280;29429;51.074;13.764;2022-12-18T04:33:17;101725.16;;;-8.28
43802;BMP280;29429;51.074;13.764;2022-12-18T04:35:45;101729.59;;;-8.33
43802;BMP280;29429;51.074;13.764;2022-12-18T04:38:13;101729.66;;;-8.36
43802;BMP280;29429;51.074;13.764;2022-12-18T04:40:40;101734.78;;;-8.33
43802;BMP280;29429;51.074;13.764;2022-12-18T04:43:16;101730.75;;;-8.45
43802;BMP280;29429;51.074;13.764;2022-12-18T04:45:43;101739.44;;;-8.47
43802;BMP280;29429;51.074;13.764;2022-12-18T04:48:10;101741.22;;;-8.51
43802;BMP280;29429;51.074;13.764;2022-12-18T04:50:37;101742.22;;;-8.56
43802;BMP280;29429;51.074;13.764;2022-12-18T04:53:04;101748.31;;;-8.59
43802;BMP280;29429;51.074;13.764;2022-12-18T04:55:31;101750.84;;;-8.57
43802;BMP280;29429;51.074;13.764;2022-12-18T04:57:58;101742.16;;;-8.53
43802;BMP280;29429;51.074;13.764;2022-12-18T05:00:26;101729.28;;;-8.56
43802;BMP280;29429;51.074;13.764;2022-12-18T05:02:53;101731.09;;;-8.60
43802;BMP280;29429;51.074;13.764;2022-12-18T05:05:20;101732.00;;;-8.62
43802;BMP280;29429;51.074;13.764;2022-12-18T05:07:47;101733.84;;;-8.68
43802;BMP280;29429;51.074;13.764;2022-12-18T05:10:14;101733.16;;;-8.74
43802;BMP280;29429;51.074;13.764;2022-12-18T05:12:40;101746.03;;;-8.73
43802;BMP280;29429;51.074;13.764;2022-12-18T05:15:30;101749.78;;;-8.86
43802;BMP280;29429;51.074;13.764;2022-12-18T05:17:58;101741.38;;;-8.97
43802;BMP280;29429;51.074;13.764;2022-12-18T05:20:27;101738.88;;;-9.00
43802;BMP280;29429;51.074;13.764;2022-12-18T05:22:55;101729.50;;;-9.04
43802;BMP280;29429;51.074;13.764;2022-12-18T05:25:23;101733.00;;;-9.06
43802;BMP280;29429;51.074;13.764;2022-12-18T05:27:50;101745.81;;;-9.02
43802;BMP280;29429;51.074;13.764;2022-12-18T05:30:17;101745.84;;;-9.03
43802;BMP280;29429;51.074;13.764;2022-12-18T05:32:44;101759.00;;;-9.15
43802;BMP280;29429;51.074;13.764;2022-12-18T05:35:11;101746.22;;;-9.21
43802;BMP280;29429;51.074;13.764;2022-12-18T05:37:38;101737.59;;;-9.20
43802;BMP280;29429;51.074;13.764;2022-12-18T05:40:10;101746.25;;;-9.23
43802;BMP280;29429;51.074;13.764;2022-12-18T05:42:37;101748.06;;;-9.26
43802;BMP280;29429;51.074;13.764;2022-12-18T05:45:05;101746.47;;;-9.34
43802;BMP280;29429;51.074;13.764;2022-12-18T05:47:32;101744.72;;;-9.33
43802;BMP280;29429;51.074;13.764;2022-12-18T05:49:59;101750.00;;;-9.39
43802;BMP280;29429;51.074;13.764;2022-12-18T05:52:26;101739.72;;;-9.41
43802;BMP280;29429;51.074;13.764;2022-12-18T05:54:53;101751.72;;;-9.38
43802;BMP280;29429;51.074;13.764;2022-12-18T05:57:21;101756.88;;;-9.38
43802;BMP280;29429;51.074;13.764;2022-12-18T05:59:48;101756.84;;;-9.37
43802;BMP280;29429;51.074;13.764;2022-12-18T06:02:15;101760.28;;;-9.36
43802;BMP280;29429;51.074;13.764;2022-12-18T06:04:42;101750.84;;;-9.37
43802;BMP280;29429;51.074;13.764;2022-12-18T06:07:09;101758.59;;;-9.39
43802;BMP280;29429;51.074;13.764;2022-12-18T06:09:36;101764.63;;;-9.38
43802;BMP280;29429;51.074;13.764;2022-12-18T06:12:03;101758.59;;;-9.37
43802;BMP280;29429;51.074;13.764;2022-12-18T06:14:30;101764.56;;;-9.35
43802;BMP280;29429;51.074;13.764;2022-12-18T06:16:57;101766.25;;;-9.34
43802;BMP280;29429;51.074;13.764;2022-12-18T06:19:24;101761.94;;;-9.32
43802;BMP280;29429;51.074;13.764;2022-12-18T06:21:51;101771.38;;;-9.31
43802;BMP280;29429;51.074;13.764;2022-12-18T06:24:19;101768.94;;;-9.39
43802;BMP280;29429;51.074;13.764;2022-12-18T06:26:46;101773.25;;;-9.39
43802;BMP280;29429;51.074;13.764;2022-12-18T06:29:13;101770.69;;;-9.41
43802;BMP280;29429;51.074;13.764;2022-12-18T06:31:40;101767.16;;;-9.37
43802;BMP280;29429;51.074;13.764;2022-12-18T06:34:07;101775.78;;;-9.36
43802;BMP280;29429;51.074;13.764;2022-12-18T06:36:33;101784.44;;;-9.39
43802;BMP280;29429;51.074;13.764;2022-12-18T06:39:00;101783.63;;;-9.42
43802;BMP280;29429;51.074;13.764;2022-12-18T06:41:27;101792.13;;;-9.36
43802;BMP280;29429;51.074;13.764;2022-12-18T06:43:55;101781.69;;;-9.31
43802;BMP280;29429;51.074;13.764;2022-12-18T06:46:27;101779.97;;;-9.31
43802;BMP280;29429;51.074;13.764;2022-12-18T06:48:54;101782.59;;;-9.32
43802;BMP280;29429;51.074;13.764;2022-12-18T06:51:23;101785.34;;;-9.41
43802;BMP280;29429;51.074;13.764;2022-12-18T06:53:50;101790.59;;;-9.46
43802;BMP280;29429;51.074;13.764;2022-12-18T06:56:17;101791.69;;;-9.59
43802;BMP280;29429;51.074;13.764;2022-12-18T06:58:44;101796.16;;;-9.68
43802;BMP280;29429;51.074;13.764;2022-12-18T07:01:12;101792.03;;;-9.78
43802;BMP280;29429;51.074;13.764;2022-12-18T07:03:42;101802.44;;;-9.83
43802;BMP280;29429;51.074;13.764;2022-12-18T07:06:16;101804.19;;;-9.85
43802;BMP280;29429;51.074;13.764;2022-12-18T07:08:45;101810.16;;;-9.81
43802;BMP280;29429;51.074;13.764;2022-12-18T07:11:13;101811.00;;;-9.79
43802;BMP280;29429;51.074;13.764;2022-12-18T07:13:40;101810.97;;;-9.78
43802;BMP280;29429;51.074;13.764;2022-12-18T07:16:12;101806.53;;;-9.71
43802;BMP280;29429;51.074;13.764;2022-12-18T07:18:48;101812.63;;;-9.75
43802;BMP280;29429;51.074;13.764;2022-12-18T07:21:18;101812.50;;;-9.66
43802;BMP280;29429;51.074;13.764;2022-12-18T07:23:45;101806.47;;;-9.68
43802;BMP280;29429;51.074;13.764;2022-12-18T07:26:18;101811.50;;;-9.61
43802;BMP280;29429;51.074;13.764;2022-12-18T07:28:46;101811.44;;;-9.56
43802;BMP280;29429;51.074;13.764;2022-12-18T07:31:18;101806.09;;;-9.47
43802;BMP280;29429;51.074;13.764;2022-12-18T07:33:48;101809.44;;;-9.42
43802;BMP280;29429;51.074;13.764;2022-12-18T07:36:15;101818.00;;;-9.37
43802;BMP280;29429;51.074;13.764;2022-12-18T07:38:42;101828.22;;;-9.34
43802;BMP280;29429;51.074;13.764;2022-12-18T07:41:12;101829.91;;;-9.32
43802;BMP280;29429;51.074;13.764;2022-12-18T07:43:41;101836.59;;;-9.20
43802;BMP280;29429;51.074;13.764;2022-12-18T07:46:10;101831.94;;;-9.01
43802;BMP280;29429;51.074;13.764;2022-12-18T07:48:40;101827.63;;;-9.01
43802;BMP280;29429;51.074;13.764;2022-12-18T07:51:08;101832.84;;;-9.04
43802;BMP280;29429;51.074;13.764;2022-12-18T07:53:36;101839.63;;;-9.00
43802;BMP280;29429;51.074;13.764;2022-12-18T07:56:10;101840.44;;;-8.96
43802;BMP280;29429;51.074;13.764;2022-12-18T07:58:57;101847.13;;;-8.86
43802;BMP280;29429;51.074;13.764;2022-12-18T08:01:25;101840.06;;;-8.78
43802;BMP280;29429;51.074;13.764;2022-12-18T08:03:52;101831.34;;;-8.73
43802;BMP280;29429;51.074;13.764;2022-12-18T08:06:19;101831.97;;;-8.61
43802;BMP280;29429;51.074;13.764;2022-12-18T08:08:54;101825.75;;;-8.53
43802;BMP280;29429;51.074;13.764;2022-12-18T08:11:24;101825.59;;;-8.47
43802;BMP280;29429;51.074;13.764;2022-12-18T08:13:52;101819.38;;;-8.37
43802;BMP280;29429;51.074;13.764;2022-12-18T08:16:22;101813.97;;;-8.28
43802;BMP280;29429;51.074;13.764;2022-12-18T08:18:51;101812.00;;;-8.18
43802;BMP280;29429;51.074;13.764;2022-12-18T08:21:25;101807.50;;;-8.10
43802;BMP280;29429;51.074;13.764;2022-12-18T08:23:55;101810.75;;;-8.02
43802;BMP280;29429;51.074;13.764;2022-12-18T08:26:24;101808.16;;;-8.02
43802;BMP280;29429;51.074;13.764;2022-12-18T08:28:55;101810.41;;;-7.88
43802;BMP280;29429;51.074;13.764;2022-12-18T08:31:24;101816.25;;;-7.80
43802;BMP280;29429;51.074;13.764;2022-12-18T08:33:52;101815.06;;;-7.67
43802;BMP280;29429;51.074;13.764;2022-12-18T08:36:21;101818.09;;;-7.52
43802;BMP280;29429;51.074;13.764;2022-12-18T08:38:50;101820.41;;;-7.39
43802;BMP280;29429;51.074;13.764;2022-12-18T08:41:19;101820.25;;;-7.33
43802;BMP280;29429;51.074;13.764;2022-12-18T08:43:46;101816.53;;;-7.25
43802;BMP280;29429;51.074;13.764;2022-12-18T08:46:41;101818.59;;;-7.05
43802;BMP280;29429;51.074;13.764;2022-12-18T08:49:10;101812.53;;;-7.04
43802;BMP280;29429;51.074;13.764;2022-12-18T08:51:38;101815.00;;;-7.01
43802;BMP280;29429;51.074;13.764;2022-12-18T08:54:06;101807.00;;;-6.92
43802;BMP280;29429;51.074;13.764;2022-12-18T08:56:33;101822.31;;;-6.83
43802;BMP280;29429;51.074;13.764;2022-12-18T08:59:01;101817.13;;;-6.83
43802;BMP280;29429;51.074;13.764;2022-12-18T09:01:28;101833.28;;;-6.75
43802;BMP280;29429;51.074;13.764;2022-12-18T09:03:56;101826.13;;;-6.67
43802;BMP280;29429;51.074;13.764;2022-12-18T09:06:23;101826.75;;;-6.59
43802;BMP280;29429;51.074;13.764;2022-12-18T09:08:50;101816.97;;;-6.49
43802;BMP280;29429;51.074;13.764;2022-12-18T09:11:27;101806.97;;;-6.34
43802;BMP280;29429;51.074;13.764;2022-12-18T09:13:55;101817.56;;;-6.12
43802;BMP280;29429;51.074;13.764;2022-12-18T09:16:24;101821.59;;;-6.03
43802;BMP280;29429;51.074;13.764;2022-12-18T09:18:59;101829.72;;;-5.86
43802;BMP280;29429;51.074;13.764;2022-12-18T09:21:33;101826.63;;;-5.73
43802;BMP280;29429;51.074;13.764;2022-12-18T09:24:04;101832.38;;;-5.63
43802;BMP280;29429;51.074;13.764;2022-12-18T09:26:35;101844.03;;;-5.48
43802;BMP280;29429;51.074;13.764;2022-12-18T09:29:03;101842.75;;;-5.37
43802;BMP280;29429;51.074;13.764;2022-12-18T09:31:30;101840.63;;;-5.26
43802;BMP280;29429;51.074;13.764;2022-12-18T09:33:57;101844.50;;;-5.13
43802;BMP280;29429;51.074;13.764;2022-12-18T09:36:24;101835.47;;;-5.03
43802;BMP280;29429;51.074;13.764;2022-12-18T09:38:51;101839.41;;;-4.91
43802;BMP280;29429;51.074;13.764;2022-12-18T09:41:50;101848.28;;;-4.73
43802;BMP280;29429;51.074;13.764;2022-12-18T09:44:32;101839.00;;;-4.57
43802;BMP280;29429;51.074;13.764;2022-12-18T09:47:23;101839.13;;;-4.37
43802;BMP280;29429;51.074;13.764;2022-12-18T09:49:56;101828.00;;;-4.19
43802;BMP280;29429;51.074;13.764;2022-12-18T09:52:34;101828.06;;;-3.99
43802;BMP280;29429;51.074;13.764;2022-12-18T09:55:29;101815.31;;;-3.85
43802;BMP280;29429;51.074;13.764;2022-12-18T09:58:36;101819.66;;;-3.63
43802;BMP280;29429;51.074;13.764;2022-12-18T10:01:22;101815.50;;;-3.47
43802;BMP280;29429;51.074;13.764;2022-12-18T10:03:51;101810.69;;;-3.36
43802;BMP280;29429;51.074;13.764;2022-12-18T10:15:36;101773.28;;;-2.78
43802;BMP280;29429;51.074;13.764;2022-12-18T10:21:01;101769.97;;;-2.63
43802;BMP280;29429;51.074;13.764;2022-12-18T10:26:43;101760.50;;;-2.47
43802;BMP280;29429;51.074;13.764;2022-12-18T10:29:13;101759.06;;;-2.35
43802;BMP280;29429;51.074;13.764;2022-12-18T10:31:41;101756.25;;;-2.30
43802;BMP280;29429;51.074;13.764;2022-12-18T10:34:14;101741.75;;;-2.19
43802;BMP280;29429;51.074;13.764;2022-12-18T10:36:42;101734.63;;;-2.15
43802;BMP280;29429;51.074;13.764;2022-12-18T10:39:25;101727.38;;;-2.10
43802;BMP280;29429;51.074;13.764;2022-12-18T10:42:20;101733.78;;;-1.99
43802;BMP280;29429;51.074;13.764;2022-12-18T10:45:12;101728.25;;;-1.93
43802;BMP280;29429;51.074;13.764;2022-12-18T10:47:48;101722.94;;;-1.91
43802;BMP280;29429;51.074;13.764;2022-12-18T10:50:32;101727.78;;;-1.83
43802;BMP280;29429;51.074;13.764;2022-12-18T10:53:26;101722.31;;;-1.79
43802;BMP280;29429;51.074;13.764;2022-12-18T10:55:58;101720.41;;;-1.75
43802;BMP280;29429;51.074;13.764;2022-12-18T10:58:38;101727.94;;;-1.69
43802;BMP280;29429;51.074;13.764;2022-12-18T11:01:16;101720.88;;;-1.67
43802;BMP280;29429;51.074;13.764;2022-12-18T11:03:58;101724.69;;;-1.74
43802;BMP280;29429;51.074;13.764;2022-12-18T11:06:29;101713.25;;;-1.72
43802;BMP280;29429;51.074;13.764;2022-12-18T11:09:21;101720.53;;;-1.61
43802;BMP280;29429;51.074;13.764;2022-12-18T11:11:58;101714.16;;;-1.56
43802;BMP280;29429;51.074;13.764;2022-12-18T11:14:34;101720.78;;;-1.49
43802;BMP280;29429;51.074;13.764;2022-12-18T11:17:32;101707.59;;;-1.47
43802;BMP280;29429;51.074;13.764;2022-12-18T11:20:20;101701.22;;;-1.42
43802;BMP280;29429;51.074;13.764;2022-12-18T11:22:58;101700.91;;;-1.36
43802;BMP280;29429;51.074;13.764;2022-12-18T11:25:26;101689.44;;;-1.33
43802;BMP280;29429;51.074;13.764;2022-12-18T11:31:17;101693.66;;;-1.31
43802;BMP280;29429;51.074;13.764;2022-12-18T11:33:56;101711.72;;;-1.26
43802;BMP280;29429;51.074;13.764;2022-12-18T11:36:47;101687.09;;;-1.22
43802;BMP280;29429;51.074;13.764;2022-12-18T11:39:40;101689.44;;;-1.17
43802;BMP280;29429;51.074;13.764;2022-12-18T11:42:50;101689.28;;;-1.14
43802;BMP280;29429;51.074;13.764;2022-12-18T11:45:24;101687.59;;;-1.15
43802;BMP280;29429;51.074;13.764;2022-12-18T11:48:13;101684.22;;;-1.17
43802;BMP280;29429;51.074;13.764;2022-12-18T11:50:57;101686.69;;;-1.14
43802;BMP280;29429;51.074;13.764;2022-12-18T11:53:26;101690.91;;;-1.12
43802;BMP280;29429;51.074;13.764;2022-12-18T11:59:00;101711.91;;;-1.13
43802;BMP280;29429;51.074;13.764;2022-12-18T12:07:46;101701.13;;;-1.07
43802;BMP280;29429;51.074;13.764;2022-12-18T12:13:39;101711.34;;;-1.03
43802;BMP280;29429;51.074;13.764;2022-12-18T12:19:19;101712.19;;;-1.02
43802;BMP280;29429;51.074;13.764;2022-12-18T12:22:06;101718.53;;;-1.06
43802;BMP280;29429;51.074;13.764;2022-12-18T12:24:59;101718.69;;;-1.09
43802;BMP280;29429;51.074;13.764;2022-12-18T12:28:02;101721.38;;;-1.11
43802;BMP280;29429;51.074;13.764;2022-12-18T12:36:20;101742.84;;;-1.04
43802;BMP280;29429;51.074;13.764;2022-12-18T12:39:31;101745.88;;;-1.12
43802;BMP280;29429;51.074;13.764;2022-12-18T12:41:59;101751.56;;;-1.21
43802;BMP280;29429;51.074;13.764;2022-12-18T12:44:54;101745.50;;;-1.22
43802;BMP280;29429;51.074;13.764;2022-12-18T12:47:30;101749.22;;;-1.26
43802;BMP280;29429;51.074;13.764;2022-12-18T12:50:03;101739.19;;;-1.17
43802;BMP280;29429;51.074;13.764;2022-12-18T12:52:40;101731.66;;;-1.24
43802;BMP280;29429;51.074;13.764;2022-12-18T12:55:20;101735.88;;;-1.21
43802;BMP280;29429;51.074;13.764;2022-12-18T12:58:11;101730.78;;;-1.24
43802;BMP280;29429;51.074;13.764;2022-12-18T13:06:49;101719.28;;;-1.37
43802;BMP280;29429;51.074;13.764;2022-12-18T13:09:17;101718.06;;;-1.47
43802;BMP280;29429;51.074;13.764;2022-12-18T13:11:47;101713.69;;;-1.47
43802;BMP280;29429;51.074;13.764;2022-12-18T13:14:39;101718.06;;;-1.47
43802;BMP280;29429;51.074;13.764;2022-12-18T13:17:28;101718.31;;;-1.52
43802;BMP280;29429;51.074;13.764;2022-12-18T13:20:12;101708.75;;;-1.53
43802;BMP280;29429;51.074;13.764;2022-12-18T13:22:48;101710.63;;;-1.55
43802;BMP280;29429;51.074;13.764;2022-12-18T13:25:36;101717.72;;;-1.57
43802;BMP280;29429;51.074;13.764;2022-12-18T13:28:15;101717.09;;;-1.62
43802;BMP280;29429;51.074;13.764;2022-12-18T13:30:51;101708.41;;;-1.62
43802;BMP280;29429;51.074;13.764;2022-12-18T13:38:42;101715.41;;;-1.63
43802;BMP280;29429;51.074;13.764;2022-12-18T13:41:25;101712.78;;;-1.63
43802;BMP280;29429;51.074;13.764;2022-12-18T13:46:48;101717.09;;;-1.62
43802;BMP280;29429;51.074;13.764;2022-12-18T13:49:26;101722.09;;;-1.57
43802;BMP280;29429;51.074;13.764;2022-12-18T13:51:56;101715.84;;;-1.55
43802;BMP280;29429;51.074;13.764;2022-12-18T13:54:37;101709.97;;;-1.43
43802;BMP280;29429;51.074;13.764;2022-12-18T13:59:55;101698.69;;;-1.43
43802;BMP280;29429;51.074;13.764;2022-12-18T14:02:28;101708.47;;;-1.47
43802;BMP280;29429;51.074;13.764;2022-12-18T14:04:56;101710.47;;;-1.52
43802;BMP280;29429;51.074;13.764;2022-12-18T14:07:25;101717.72;;;-1.57
43802;BMP280;29429;51.074;13.764;2022-12-18T14:09:59;101713.63;;;-1.62
43802;BMP280;29429;51.074;13.764;2022-12-18T14:12:50;101721.03;;;-1.70
43802;BMP280;29429;51.074;13.764;2022-12-18T14:17:58;101726.66;;;-1.78
43802;BMP280;29429;51.074;13.764;2022-12-18T14:20:29;101716.25;;;-1.79
43802;BMP280;29429;51.074;13.764;2022-12-18T14:23:00;101719.25;;;-1.87
43802;BMP280;29429;51.074;13.764;2022-12-18T14:25:30;101712.97;;;-1.83
43802;BMP280;29429;51.074;13.764;2022-12-18T14:28:12;101708.09;;;-1.91
43802;BMP280;29429;51.074;13.764;2022-12-18T14:30:43;101705.03;;;-1.99
43802;BMP280;29429;51.074;13.764;2022-12-18T14:41:16;101674.03;;;-2.06
43802;BMP280;29429;51.074;13.764;2022-12-18T14:43:48;101682.97;;;-2.10
43802;BMP280;29429;51.074;13.764;2022-12-18T14:48:57;101677.25;;;-2.18
43802;BMP280;29429;51.074;13.764;2022-12-18T14:51:27;101691.25;;;-2.19
43802;BMP280;29429;51.074;13.764;2022-12-18T14:53:56;101683.19;;;-2.15
43802;BMP280;29429;51.074;13.764;2022-12-18T14:56:28;101688.78;;;-2.22
43802;BMP280;29429;51.074;13.764;2022-12-18T14:59:13;101700.31;;;-2.26
43802;BMP280;29429;51.074;13.764;2022-12-18T15:02:03;101702.88;;;-2.43
43802;BMP280;29429;51.074;13.764;2022-12-18T15:04:33;101702.88;;;-2.43
43802;BMP280;29429;51.074;13.764;2022-12-18T15:07:13;101704.72;;;-2.46
43802;BMP280;29429;51.074;13.764;2022-12-18T15:10:19;101703.56;;;-2.57
43802;BMP280;29429;51.074;13.764;2022-12-18T15:20:59;101698.53;;;-2.62
43802;BMP280;29429;51.074;13.764;2022-12-18T15:23:47;101692.50;;;-2.62
43802;BMP280;29429;51.074;13.764;2022-12-18T15:26:18;101676.25;;;-2.69
43802;BMP280;29429;51.074;13.764;2022-12-18T15:28:57;101690.66;;;-2.79
43802;BMP280;29429;51.074;13.764;2022-12-18T15:31:32;101693.34;;;-2.80
43802;BMP280;29429;51.074;13.764;2022-12-18T15:36:34;101698.38;;;-2.94
43802;BMP280;29429;51.074;13.764;2022-12-18T15:39:03;101686.16;;;-2.94
43802;BMP280;29429;51.074;13.764;2022-12-18T15:41:36;101672.19;;;-2.93
43802;BMP280;29429;51.074;13.764;2022-12-18T15:44:24;101679.25;;;-2.95
43802;BMP280;29429;51.074;13.764;2022-12-18T15:46:52;101678.53;;;-2.98
43802;BMP280;29429;51.074;13.764;2022-12-18T15:49:19;101677.84;;;-3.02
43802;BMP280;29429;51.074;13.764;2022-12-18T15:51:54;101675.16;;;-3.00
43802;BMP280;29429;51.074;13.764;2022-12-18T15:54:26;101684.97;;;-3.05
43802;BMP280;29429;51.074;13.764;2022-12-18T15:57:12;101682.97;;;-3.00
43802;BMP280;29429;51.074;13.764;2022-12-18T15:59:55;101682.97;;;-3.00
43802;BMP280;29429;51.074;13.764;2022-12-18T16:02:25;101672.81;;;-3.07